sensor_id;sensor_type;location;lat;lon;timestamp;P1;durP1;ratioP1;P2;durP2;ratioP2
75379;SDS011;64279;44.714;37.756;2022-11-25T00:02:16;3.85;;;2.78;;
75379;SDS011;64279;44.714;37.756;2022-11-25T00:03:19;4.05;;;2.75;;
75379;SDS011;64279;44.714;37.756;2022-11-25T00:04:22;3.95;;;2.72;;
75379;SDS011;64279;44.714;37.756;2022-11-25T00:05:25;4.43;;;3.38;;
75379;SDS011;64279;44.714;37.756;2022-11-25T00:06:30;3.55;;;2.58;;
75379;SDS011;64279;44.714;37.756;2022-11-25T00:07:34;4.43;;;3.10;;
75379;SDS011;64279;44.714;37.756;2022-11-25T00:08:37;3.95;;;2.80;;
75379;SDS011;64279;44.714;37.756;2022-11-25T00:09:41;3.67;;;2.60;;
75379;SDS011;64279;44.714;37.756;2022-11-25T00:10:43;4.72;;;2.70;;
75379;SDS011;64279;44.714;37.756;2022-11-25T00:11:46;3.75;;;3.00;;
75379;SDS011;64279;44.714;37.756;2022-11-25T00:12:49;4.60;;;3.10;;
75379;SDS011;64279;44.714;37.756;2022-11-25T00:13:51;4.40;;;3.25;;
75379;SDS011;64279;44.714;37.756;2022-11-25T00:14:54;4.15;;;2.60;;
75379;SDS011;64279;44.714;37.756;2022-11-25T00:16:01;4.28;;;2.90;;
75379;SDS011;64279;44.714;37.756;2022-11-25T00:17:06;3.92;;;2.70;;
75379;SDS011;64279;44.714;37.756;2022-11-25T00:18:09;3.58;;;2.67;;
75379;SDS011;64279;44.714;37.756;2022-11-25T00:19:12;4.10;;;2.72;;
75379;SDS011;64279;44.714;37.756;2022-11-25T00:20:14;5.40;;;3.05;;
75379;SDS011;64279;44.714;37.756;2022-11-25T00:21:24;5.18;;;2.97;;
75379;SDS011;64279;44.714;37.756;2022-11-25T00:22:29;3.67;;;3.20;;
75379;SDS011;64279;44.714;37.756;2022-11-25T00:23:31;3.90;;;2.70;;
75379;SDS011;64279;44.714;37.756;2022-11-25T00:24:34;3.83;;;3.22;;
75379;SDS011;64279;44.714;37.756;2022-11-25T00:25:37;3.97;;;2.97;;
75379;SDS011;64279;44.714;37.756;2022-11-25T00:26:39;3.78;;;2.90;;
75379;SDS011;64279;44.714;37.756;2022-11-25T00:27:42;4.43;;;3.33;;
75379;SDS011;64279;44.714;37.756;2022-11-25T00:28:45;3.65;;;2.42;;
75379;SDS011;64279;44.714;37.756;2022-11-25T00:29:48;5.10;;;3.55;;
75379;SDS011;64279;44.714;37.756;2022-11-25T00:30:51;3.67;;;2.65;;
75379;SDS011;64279;44.714;37.756;2022-11-25T00:31:54;4.78;;;3.08;;
75379;SDS011;64279;44.714;37.756;2022-11-25T00:32:57;4.25;;;2.90;;
75379;SDS011;64279;44.714;37.756;2022-11-25T00:34:00;4.95;;;2.97;;
75379;SDS011;64279;44.714;37.756;2022-11-25T00:35:04;4.47;;;2.72;;
75379;SDS011;64279;44.714;37.756;2022-11-25T00:36:13;3.55;;;2.53;;
75379;SDS011;64279;44.714;37.756;2022-11-25T00:37:23;3.15;;;2.42;;
75379;SDS011;64279;44.714;37.756;2022-11-25T00:38:26;4.00;;;3.13;;
75379;SDS011;64279;44.714;37.756;2022-11-25T00:39:29;4.28;;;3.22;;
75379;SDS011;64279;44.714;37.756;2022-11-25T00:40:33;4.88;;;2.65;;
75379;SDS011;64279;44.714;37.756;2022-11-25T00:41:36;3.80;;;2.42;;
75379;SDS011;64279;44.714;37.756;2022-11-25T00:42:57;4.10;;;3.05;;
75379;SDS011;64279;44.714;37.756;2022-11-25T00:44:18;3.78;;;2.72;;
75379;SDS011;64279;44.714;37.756;2022-11-25T00:45:38;4.13;;;2.72;;
75379;SDS011;64279;44.714;37.756;2022-11-25T00:46:41;3.92;;;2.75;;
75379;SDS011;64279;44.714;37.756;2022-11-25T00:47:44;4.25;;;2.60;;
75379;SDS011;64279;44.714;37.756;2022-11-25T00:48:46;4.50;;;3.03;;
75379;SDS011;64279;44.714;37.756;2022-11-25T00:49:50;4.47;;;2.95;;
75379;SDS011;64279;44.714;37.756;2022-11-25T00:50:54;4.47;;;2.53;;
75379;SDS011;64279;44.714;37.756;2022-11-25T00:51:57;4.10;;;2.70;;
75379;SDS011;64279;44.714;37.756;2022-11-25T00:53:00;4.63;;;3.10;;
75379;SDS011;64279;44.714;37.756;2022-11-25T00:54:02;3.63;;;2.63;;
75379;SDS011;64279;44.714;37.756;2022-11-25T00:55:06;4.15;;;3.50;;
75379;SDS011;64279;44.714;37.756;2022-11-25T00:56:09;5.20;;;3.28;;
75379;SDS011;64279;44.714;37.756;2022-11-25T00:57:15;4.47;;;3.25;;
75379;SDS011;64279;44.714;37.756;2022-11-25T00:58:18;4.30;;;2.83;;
75379;SDS011;64279;44.714;37.756;2022-11-25T00:59:22;3.90;;;2.60;;
75379;SDS011;64279;44.714;37.756;2022-11-25T01:00:26;4.03;;;2.72;;
75379;SDS011;64279;44.714;37.756;2022-11-25T01:01:29;4.70;;;2.83;;
75379;SDS011;64279;44.714;37.756;2022-11-25T01:02:32;3.92;;;2.88;;
75379;SDS011;64279;44.714;37.756;2022-11-25T01:03:34;4.28;;;3.35;;
75379;SDS011;64279;44.714;37.756;2022-11-25T01:04:40;4.03;;;3.13;;
75379;SDS011;64279;44.714;37.756;2022-11-25T01:05:43;3.78;;;2.72;;
75379;SDS011;64279;44.714;37.756;2022-11-25T01:06:47;4.35;;;3.00;;
75379;SDS011;64279;44.714;37.756;2022-11-25T01:07:50;3.88;;;2.83;;
75379;SDS011;64279;44.714;37.756;2022-11-25T01:08:54;3.20;;;2.50;;
75379;SDS011;64279;44.714;37.756;2022-11-25T01:09:57;3.80;;;2.75;;
75379;SDS011;64279;44.714;37.756;2022-11-25T01:11:00;4.05;;;3.00;;
75379;SDS011;64279;44.714;37.756;2022-11-25T01:12:13;4.80;;;2.70;;
75379;SDS011;64279;44.714;37.756;2022-11-25T01:13:16;4.85;;;2.55;;
75379;SDS011;64279;44.714;37.756;2022-11-25T01:14:19;4.68;;;3.17;;
75379;SDS011;64279;44.714;37.756;2022-11-25T01:15:22;3.72;;;2.80;;
75379;SDS011;64279;44.714;37.756;2022-11-25T01:16:25;4.78;;;2.78;;
75379;SDS011;64279;44.714;37.756;2022-11-25T01:17:28;4.57;;;3.13;;
75379;SDS011;64279;44.714;37.756;2022-11-25T01:18:31;3.95;;;2.80;;
75379;SDS011;64279;44.714;37.756;2022-11-25T01:19:34;4.43;;;3.13;;
75379;SDS011;64279;44.714;37.756;2022-11-25T01:20:41;3.60;;;2.58;;
75379;SDS011;64279;44.714;37.756;2022-11-25T01:21:44;4.10;;;2.80;;
75379;SDS011;64279;44.714;37.756;2022-11-25T01:22:47;4.03;;;2.72;;
75379;SDS011;64279;44.714;37.756;2022-11-25T01:23:50;3.42;;;2.50;;
75379;SDS011;64279;44.714;37.756;2022-11-25T01:24:53;3.95;;;2.85;;
75379;SDS011;64279;44.714;37.756;2022-11-25T01:25:56;4.05;;;3.00;;
75379;SDS011;64279;44.714;37.756;2022-11-25T01:27:02;4.50;;;3.17;;
75379;SDS011;64279;44.714;37.756;2022-11-25T01:28:04;3.85;;;2.78;;
75379;SDS011;64279;44.714;37.756;2022-11-25T01:29:11;4.82;;;3.05;;
75379;SDS011;64279;44.714;37.756;2022-11-25T01:30:16;5.32;;;3.17;;
75379;SDS011;64279;44.714;37.756;2022-11-25T01:31:20;4.70;;;2.75;;
75379;SDS011;64279;44.714;37.756;2022-11-25T01:32:24;4.70;;;3.42;;
75379;SDS011;64279;44.714;37.756;2022-11-25T01:33:27;4.57;;;2.97;;
75379;SDS011;64279;44.714;37.756;2022-11-25T01:34:33;4.18;;;2.70;;
75379;SDS011;64279;44.714;37.756;2022-11-25T01:35:36;3.70;;;2.85;;
75379;SDS011;64279;44.714;37.756;2022-11-25T01:36:39;3.70;;;2.78;;
75379;SDS011;64279;44.714;37.756;2022-11-25T01:37:43;4.68;;;3.33;;
75379;SDS011;64279;44.714;37.756;2022-11-25T01:38:48;4.63;;;2.88;;
75379;SDS011;64279;44.714;37.756;2022-11-25T01:39:52;4.22;;;2.80;;
75379;SDS011;64279;44.714;37.756;2022-11-25T01:40:55;4.80;;;3.13;;
75379;SDS011;64279;44.714;37.756;2022-11-25T01:41:58;4.60;;;3.15;;
75379;SDS011;64279;44.714;37.756;2022-11-25T01:43:01;4.05;;;3.00;;
75379;SDS011;64279;44.714;37.756;2022-11-25T01:47:15;4.05;;;3.22;;
75379;SDS011;64279;44.714;37.756;2022-11-25T01:48:02;4.00;;;2.72;;
75379;SDS011;64279;44.714;37.756;2022-11-25T01:49:32;5.18;;;2.90;;
75379;SDS011;64279;44.714;37.756;2022-11-25T01:50:37;4.00;;;2.40;;
75379;SDS011;64279;44.714;37.756;2022-11-25T01:51:43;5.75;;;3.40;;
75379;SDS011;64279;44.714;37.756;2022-11-25T01:52:51;4.28;;;2.72;;
75379;SDS011;64279;44.714;37.756;2022-11-25T01:53:57;4.30;;;2.88;;
75379;SDS011;64279;44.714;37.756;2022-11-25T01:55:08;4.85;;;3.10;;
75379;SDS011;64279;44.714;37.756;2022-11-25T01:56:13;3.80;;;2.63;;
75379;SDS011;64279;44.714;37.756;2022-11-25T01:57:18;5.00;;;3.28;;
75379;SDS011;64279;44.714;37.756;2022-11-25T01:58:28;3.63;;;2.65;;
75379;SDS011;64279;44.714;37.756;2022-11-25T01:59:35;4.40;;;3.45;;
75379;SDS011;64279;44.714;37.756;2022-11-25T02:00:44;3.58;;;2.63;;
75379;SDS011;64279;44.714;37.756;2022-11-25T02:01:52;3.80;;;2.92;;
75379;SDS011;64279;44.714;37.756;2022-11-25T02:02:56;3.58;;;2.75;;
75379;SDS011;64279;44.714;37.756;2022-11-25T02:04:00;4.22;;;2.80;;
75379;SDS011;64279;44.714;37.756;2022-11-25T02:05:08;3.75;;;2.70;;
75379;SDS011;64279;44.714;37.756;2022-11-25T02:06:24;3.85;;;3.00;;
75379;SDS011;64279;44.714;37.756;2022-11-25T02:07:34;4.05;;;2.53;;
75379;SDS011;64279;44.714;37.756;2022-11-25T02:08:39;3.92;;;2.78;;
75379;SDS011;64279;44.714;37.756;2022-11-25T02:09:44;4.53;;;2.97;;
75379;SDS011;64279;44.714;37.756;2022-11-25T02:10:48;3.10;;;2.30;;
75379;SDS011;64279;44.714;37.756;2022-11-25T02:11:52;4.60;;;2.70;;
75379;SDS011;64279;44.714;37.756;2022-11-25T02:12:56;3.72;;;2.60;;
75379;SDS011;64279;44.714;37.756;2022-11-25T02:13:59;4.70;;;3.10;;
75379;SDS011;64279;44.714;37.756;2022-11-25T02:15:04;3.95;;;2.80;;
75379;SDS011;64279;44.714;37.756;2022-11-25T02:16:07;3.97;;;2.67;;
75379;SDS011;64279;44.714;37.756;2022-11-25T02:17:10;4.07;;;3.22;;
75379;SDS011;64279;44.714;37.756;2022-11-25T02:18:12;3.95;;;2.30;;
75379;SDS011;64279;44.714;37.756;2022-11-25T02:19:19;3.45;;;2.40;;
75379;SDS011;64279;44.714;37.756;2022-11-25T02:20:29;3.53;;;2.70;;
75379;SDS011;64279;44.714;37.756;2022-11-25T02:21:35;4.13;;;2.78;;
75379;SDS011;64279;44.714;37.756;2022-11-25T02:24:03;4.28;;;2.83;;
75379;SDS011;64279;44.714;37.756;2022-11-25T02:25:14;3.38;;;2.55;;
75379;SDS011;64279;44.714;37.756;2022-11-25T02:26:18;3.72;;;2.58;;
75379;SDS011;64279;44.714;37.756;2022-11-25T02:27:23;4.35;;;2.60;;
75379;SDS011;64279;44.714;37.756;2022-11-25T02:28:28;4.43;;;3.70;;
75379;SDS011;64279;44.714;37.756;2022-11-25T02:29:32;3.80;;;2.85;;
75379;SDS011;64279;44.714;37.756;2022-11-25T02:30:35;3.88;;;2.85;;
75379;SDS011;64279;44.714;37.756;2022-11-25T02:31:38;4.63;;;3.00;;
75379;SDS011;64279;44.714;37.756;2022-11-25T02:32:44;4.13;;;2.88;;
75379;SDS011;64279;44.714;37.756;2022-11-25T02:33:47;4.35;;;3.03;;
75379;SDS011;64279;44.714;37.756;2022-11-25T02:34:50;3.92;;;3.53;;
75379;SDS011;64279;44.714;37.756;2022-11-25T02:36:57;4.20;;;3.03;;
75379;SDS011;64279;44.714;37.756;2022-11-25T02:38:03;4.82;;;2.85;;
75379;SDS011;64279;44.714;37.756;2022-11-25T02:39:09;3.17;;;2.42;;
75379;SDS011;64279;44.714;37.756;2022-11-25T02:40:13;3.38;;;2.28;;
75379;SDS011;64279;44.714;37.756;2022-11-25T02:41:32;4.30;;;2.88;;
75379;SDS011;64279;44.714;37.756;2022-11-25T02:42:44;4.80;;;3.03;;
75379;SDS011;64279;44.714;37.756;2022-11-25T02:43:49;4.35;;;2.90;;
75379;SDS011;64279;44.714;37.756;2022-11-25T02:44:54;3.70;;;2.40;;
75379;SDS011;64279;44.714;37.756;2022-11-25T02:45:59;4.25;;;2.70;;
75379;SDS011;64279;44.714;37.756;2022-11-25T02:47:05;3.80;;;2.47;;
75379;SDS011;64279;44.714;37.756;2022-11-25T02:48:08;3.75;;;2.90;;
75379;SDS011;64279;44.714;37.756;2022-11-25T02:49:10;4.47;;;2.90;;
75379;SDS011;64279;44.714;37.756;2022-11-25T02:50:15;3.70;;;2.50;;
75379;SDS011;64279;44.714;37.756;2022-11-25T02:51:19;3.53;;;2.58;;
75379;SDS011;64279;44.714;37.756;2022-11-25T02:52:24;4.88;;;2.92;;
75379;SDS011;64279;44.714;37.756;2022-11-25T02:53:26;4.28;;;3.10;;
75379;SDS011;64279;44.714;37.756;2022-11-25T02:54:29;3.78;;;2.92;;
75379;SDS011;64279;44.714;37.756;2022-11-25T02:55:34;4.50;;;3.05;;
75379;SDS011;64279;44.714;37.756;2022-11-25T02:56:37;5.20;;;4.70;;
75379;SDS011;64279;44.714;37.756;2022-11-25T02:57:42;3.85;;;2.55;;
75379;SDS011;64279;44.714;37.756;2022-11-25T02:58:44;3.67;;;3.05;;
75379;SDS011;64279;44.714;37.756;2022-11-25T02:59:47;4.93;;;3.50;;
75379;SDS011;64279;44.714;37.756;2022-11-25T03:00:50;4.07;;;2.80;;
75379;SDS011;64279;44.714;37.756;2022-11-25T03:01:53;4.10;;;2.92;;
75379;SDS011;64279;44.714;37.756;2022-11-25T03:02:59;4.85;;;3.30;;
75379;SDS011;64279;44.714;37.756;2022-11-25T03:04:02;4.10;;;3.00;;
75379;SDS011;64279;44.714;37.756;2022-11-25T03:05:05;3.88;;;2.88;;
75379;SDS011;64279;44.714;37.756;2022-11-25T03:06:07;4.60;;;3.30;;
75379;SDS011;64279;44.714;37.756;2022-11-25T03:07:11;3.88;;;2.88;;
75379;SDS011;64279;44.714;37.756;2022-11-25T03:08:14;4.88;;;3.10;;
75379;SDS011;64279;44.714;37.756;2022-11-25T03:09:16;4.05;;;2.80;;
75379;SDS011;64279;44.714;37.756;2022-11-25T03:10:19;5.00;;;2.75;;
75379;SDS011;64279;44.714;37.756;2022-11-25T03:11:23;5.10;;;2.92;;
75379;SDS011;64279;44.714;37.756;2022-11-25T03:12:44;4.10;;;2.88;;
75379;SDS011;64279;44.714;37.756;2022-11-25T03:13:48;3.90;;;2.63;;
75379;SDS011;64279;44.714;37.756;2022-11-25T03:14:50;4.22;;;2.90;;
75379;SDS011;64279;44.714;37.756;2022-11-25T03:15:53;4.97;;;2.70;;
75379;SDS011;64279;44.714;37.756;2022-11-25T03:16:57;3.60;;;2.90;;
75379;SDS011;64279;44.714;37.756;2022-11-25T03:18:02;4.88;;;2.97;;
75379;SDS011;64279;44.714;37.756;2022-11-25T03:19:08;4.57;;;3.20;;
75379;SDS011;64279;44.714;37.756;2022-11-25T03:20:11;3.40;;;2.65;;
75379;SDS011;64279;44.714;37.756;2022-11-25T03:21:14;4.15;;;3.00;;
75379;SDS011;64279;44.714;37.756;2022-11-25T03:22:17;3.92;;;2.75;;
75379;SDS011;64279;44.714;37.756;2022-11-25T03:23:19;3.58;;;2.60;;
75379;SDS011;64279;44.714;37.756;2022-11-25T03:24:22;4.50;;;3.10;;
75379;SDS011;64279;44.714;37.756;2022-11-25T03:25:25;4.75;;;3.50;;
75379;SDS011;64279;44.714;37.756;2022-11-25T03:26:29;4.28;;;2.95;;
75379;SDS011;64279;44.714;37.756;2022-11-25T03:27:32;4.85;;;3.17;;
75379;SDS011;64279;44.714;37.756;2022-11-25T03:28:36;4.57;;;2.95;;
75379;SDS011;64279;44.714;37.756;2022-11-25T03:29:39;4.18;;;3.25;;
75379;SDS011;64279;44.714;37.756;2022-11-25T03:30:42;3.97;;;3.22;;
75379;SDS011;64279;44.714;37.756;2022-11-25T03:31:45;4.30;;;2.80;;
75379;SDS011;64279;44.714;37.756;2022-11-25T03:32:47;4.03;;;2.72;;
75379;SDS011;64279;44.714;37.756;2022-11-25T03:33:50;3.85;;;2.83;;
75379;SDS011;64279;44.714;37.756;2022-11-25T03:34:55;3.63;;;2.83;;
75379;SDS011;64279;44.714;37.756;2022-11-25T03:35:57;3.47;;;2.78;;
75379;SDS011;64279;44.714;37.756;2022-11-25T03:37:00;4.63;;;3.13;;
75379;SDS011;64279;44.714;37.756;2022-11-25T03:38:04;4.78;;;3.10;;
75379;SDS011;64279;44.714;37.756;2022-11-25T03:39:10;4.93;;;2.90;;
75379;SDS011;64279;44.714;37.756;2022-11-25T03:40:13;5.10;;;3.30;;
75379;SDS011;64279;44.714;37.756;2022-11-25T03:41:17;4.22;;;3.10;;
75379;SDS011;64279;44.714;37.756;2022-11-25T03:42:20;5.57;;;2.97;;
75379;SDS011;64279;44.714;37.756;2022-11-25T03:43:23;4.53;;;3.30;;
75379;SDS011;64279;44.714;37.756;2022-11-25T03:44:25;4.88;;;2.95;;
75379;SDS011;64279;44.714;37.756;2022-11-25T03:45:28;4.32;;;3.03;;
75379;SDS011;64279;44.714;37.756;2022-11-25T03:46:33;4.40;;;3.00;;
75379;SDS011;64279;44.714;37.756;2022-11-25T03:47:39;6.20;;;2.88;;
75379;SDS011;64279;44.714;37.756;2022-11-25T03:48:42;3.75;;;2.78;;
75379;SDS011;64279;44.714;37.756;2022-11-25T03:49:45;3.83;;;2.53;;
75379;SDS011;64279;44.714;37.756;2022-11-25T03:50:48;4.45;;;2.72;;
75379;SDS011;64279;44.714;37.756;2022-11-25T03:51:50;3.75;;;2.80;;
75379;SDS011;64279;44.714;37.756;2022-11-25T03:52:54;4.63;;;3.28;;
75379;SDS011;64279;44.714;37.756;2022-11-25T03:53:57;3.40;;;2.63;;
75379;SDS011;64279;44.714;37.756;2022-11-25T03:55:00;4.35;;;2.85;;
75379;SDS011;64279;44.714;37.756;2022-11-25T03:56:05;3.92;;;3.05;;
75379;SDS011;64279;44.714;37.756;2022-11-25T03:57:08;3.90;;;2.92;;
75379;SDS011;64279;44.714;37.756;2022-11-25T03:58:11;4.18;;;2.58;;
75379;SDS011;64279;44.714;37.756;2022-11-25T03:59:14;3.88;;;3.30;;
75379;SDS011;64279;44.714;37.756;2022-11-25T04:00:17;4.05;;;3.17;;
75379;SDS011;64279;44.714;37.756;2022-11-25T04:01:26;3.58;;;2.80;;
75379;SDS011;64279;44.714;37.756;2022-11-25T04:02:29;3.97;;;2.88;;
75379;SDS011;64279;44.714;37.756;2022-11-25T04:03:32;3.60;;;2.72;;
75379;SDS011;64279;44.714;37.756;2022-11-25T04:04:35;3.97;;;3.13;;
75379;SDS011;64279;44.714;37.756;2022-11-25T04:05:38;4.10;;;3.10;;
75379;SDS011;64279;44.714;37.756;2022-11-25T04:06:42;4.00;;;2.85;;
75379;SDS011;64279;44.714;37.756;2022-11-25T04:07:46;4.43;;;2.65;;
75379;SDS011;64279;44.714;37.756;2022-11-25T04:08:54;3.85;;;3.20;;
75379;SDS011;64279;44.714;37.756;2022-11-25T04:09:57;4.38;;;3.22;;
75379;SDS011;64279;44.714;37.756;2022-11-25T04:11:02;5.65;;;2.90;;
75379;SDS011;64279;44.714;37.756;2022-11-25T04:12:09;4.75;;;3.13;;
75379;SDS011;64279;44.714;37.756;2022-11-25T04:13:38;4.22;;;3.00;;
75379;SDS011;64279;44.714;37.756;2022-11-25T04:14:41;5.57;;;3.25;;
75379;SDS011;64279;44.714;37.756;2022-11-25T04:15:44;5.22;;;3.45;;
75379;SDS011;64279;44.714;37.756;2022-11-25T04:16:49;6.60;;;3.60;;
75379;SDS011;64279;44.714;37.756;2022-11-25T04:17:52;6.82;;;3.42;;
75379;SDS011;64279;44.714;37.756;2022-11-25T04:18:55;5.65;;;2.80;;
75379;SDS011;64279;44.714;37.756;2022-11-25T04:19:57;5.25;;;3.10;;
75379;SDS011;64279;44.714;37.756;2022-11-25T04:21:00;5.13;;;3.38;;
75379;SDS011;64279;44.714;37.756;2022-11-25T04:22:03;5.43;;;3.05;;
75379;SDS011;64279;44.714;37.756;2022-11-25T04:23:09;3.92;;;2.70;;
75379;SDS011;64279;44.714;37.756;2022-11-25T04:24:18;6.00;;;3.50;;
75379;SDS011;64279;44.714;37.756;2022-11-25T04:25:21;5.78;;;3.33;;
75379;SDS011;64279;44.714;37.756;2022-11-25T04:26:24;7.15;;;3.45;;
75379;SDS011;64279;44.714;37.756;2022-11-25T04:27:27;6.70;;;3.72;;
75379;SDS011;64279;44.714;37.756;2022-11-25T04:28:30;9.23;;;3.42;;
75379;SDS011;64279;44.714;37.756;2022-11-25T04:29:33;4.72;;;3.28;;
75379;SDS011;64279;44.714;37.756;2022-11-25T04:30:38;6.15;;;3.50;;
75379;SDS011;64279;44.714;37.756;2022-11-25T04:31:41;5.85;;;3.78;;
75379;SDS011;64279;44.714;37.756;2022-11-25T04:32:43;5.28;;;3.58;;
75379;SDS011;64279;44.714;37.756;2022-11-25T04:33:47;7.05;;;4.13;;
75379;SDS011;64279;44.714;37.756;2022-11-25T04:34:56;7.40;;;3.60;;
75379;SDS011;64279;44.714;37.756;2022-11-25T04:35:59;8.90;;;3.85;;
75379;SDS011;64279;44.714;37.756;2022-11-25T04:37:02;5.70;;;3.47;;
75379;SDS011;64279;44.714;37.756;2022-11-25T04:38:05;6.03;;;3.63;;
75379;SDS011;64279;44.714;37.756;2022-11-25T04:39:09;8.02;;;3.83;;
75379;SDS011;64279;44.714;37.756;2022-11-25T04:40:12;8.48;;;3.83;;
75379;SDS011;64279;44.714;37.756;2022-11-25T04:41:19;6.05;;;3.90;;
75379;SDS011;64279;44.714;37.756;2022-11-25T04:42:22;5.85;;;3.88;;
75379;SDS011;64279;44.714;37.756;2022-11-25T04:43:38;8.98;;;4.18;;
75379;SDS011;64279;44.714;37.756;2022-11-25T04:44:44;7.53;;;4.15;;
75379;SDS011;64279;44.714;37.756;2022-11-25T04:46:08;6.10;;;3.38;;
75379;SDS011;64279;44.714;37.756;2022-11-25T04:47:19;9.93;;;3.90;;
75379;SDS011;64279;44.714;37.756;2022-11-25T04:48:22;6.28;;;3.90;;
75379;SDS011;64279;44.714;37.756;2022-11-25T04:49:25;6.25;;;4.15;;
75379;SDS011;64279;44.714;37.756;2022-11-25T04:50:28;7.10;;;3.42;;
75379;SDS011;64279;44.714;37.756;2022-11-25T04:51:42;7.28;;;3.65;;
75379;SDS011;64279;44.714;37.756;2022-11-25T04:52:45;7.93;;;4.05;;
75379;SDS011;64279;44.714;37.756;2022-11-25T04:53:48;7.65;;;3.95;;
75379;SDS011;64279;44.714;37.756;2022-11-25T04:54:50;8.13;;;4.60;;
75379;SDS011;64279;44.714;37.756;2022-11-25T04:55:53;6.47;;;3.92;;
75379;SDS011;64279;44.714;37.756;2022-11-25T04:56:56;6.80;;;3.45;;
75379;SDS011;64279;44.714;37.756;2022-11-25T04:58:00;7.78;;;3.95;;
75379;SDS011;64279;44.714;37.756;2022-11-25T04:59:04;6.40;;;3.88;;
75379;SDS011;64279;44.714;37.756;2022-11-25T05:00:27;8.20;;;3.53;;
75379;SDS011;64279;44.714;37.756;2022-11-25T05:01:31;7.32;;;3.55;;
75379;SDS011;64279;44.714;37.756;2022-11-25T05:02:43;7.10;;;3.70;;
75379;SDS011;64279;44.714;37.756;2022-11-25T05:03:52;8.57;;;3.95;;
75379;SDS011;64279;44.714;37.756;2022-11-25T05:05:00;7.05;;;3.60;;
75379;SDS011;64279;44.714;37.756;2022-11-25T05:06:06;6.20;;;3.95;;
75379;SDS011;64279;44.714;37.756;2022-11-25T05:07:12;6.50;;;3.75;;
75379;SDS011;64279;44.714;37.756;2022-11-25T05:08:18;7.35;;;4.05;;
75379;SDS011;64279;44.714;37.756;2022-11-25T05:09:20;7.97;;;4.18;;
75379;SDS011;64279;44.714;37.756;2022-11-25T05:10:32;8.43;;;4.05;;
75379;SDS011;64279;44.714;37.756;2022-11-25T05:11:35;6.97;;;3.75;;
75379;SDS011;64279;44.714;37.756;2022-11-25T05:12:38;6.68;;;3.60;;
75379;SDS011;64279;44.714;37.756;2022-11-25T05:13:45;6.47;;;4.00;;
75379;SDS011;64279;44.714;37.756;2022-11-25T05:14:48;7.85;;;4.18;;
75379;SDS011;64279;44.714;37.756;2022-11-25T05:15:51;6.47;;;4.05;;
75379;SDS011;64279;44.714;37.756;2022-11-25T05:16:55;7.93;;;4.40;;
75379;SDS011;64279;44.714;37.756;2022-11-25T05:17:58;7.85;;;4.07;;
75379;SDS011;64279;44.714;37.756;2022-11-25T05:19:13;7.97;;;4.07;;
75379;SDS011;64279;44.714;37.756;2022-11-25T05:20:16;7.05;;;4.10;;
75379;SDS011;64279;44.714;37.756;2022-11-25T05:21:20;7.68;;;4.30;;
75379;SDS011;64279;44.714;37.756;2022-11-25T05:22:24;7.28;;;3.78;;
75379;SDS011;64279;44.714;37.756;2022-11-25T05:23:29;6.72;;;3.83;;
75379;SDS011;64279;44.714;37.756;2022-11-25T05:24:33;6.20;;;3.63;;
75379;SDS011;64279;44.714;37.756;2022-11-25T05:25:36;7.45;;;3.78;;
75379;SDS011;64279;44.714;37.756;2022-11-25T05:27:00;7.00;;;3.83;;
75379;SDS011;64279;44.714;37.756;2022-11-25T05:28:03;7.55;;;4.43;;
75379;SDS011;64279;44.714;37.756;2022-11-25T05:29:05;7.47;;;3.80;;
75379;SDS011;64279;44.714;37.756;2022-11-25T05:30:09;6.80;;;4.00;;
75379;SDS011;64279;44.714;37.756;2022-11-25T05:31:12;6.15;;;3.95;;
75379;SDS011;64279;44.714;37.756;2022-11-25T05:32:14;6.32;;;3.58;;
75379;SDS011;64279;44.714;37.756;2022-11-25T05:33:18;7.00;;;3.92;;
75379;SDS011;64279;44.714;37.756;2022-11-25T05:34:20;7.40;;;3.92;;
75379;SDS011;64279;44.714;37.756;2022-11-25T05:35:23;6.95;;;4.45;;
75379;SDS011;64279;44.714;37.756;2022-11-25T05:36:26;6.63;;;3.78;;
75379;SDS011;64279;44.714;37.756;2022-11-25T05:37:30;7.40;;;4.22;;
75379;SDS011;64279;44.714;37.756;2022-11-25T05:38:37;7.05;;;4.07;;
75379;SDS011;64279;44.714;37.756;2022-11-25T05:39:41;6.80;;;3.85;;
75379;SDS011;64279;44.714;37.756;2022-11-25T05:41:17;7.10;;;4.25;;
75379;SDS011;64279;44.714;37.756;2022-11-25T05:42:20;5.57;;;3.30;;
75379;SDS011;64279;44.714;37.756;2022-11-25T05:43:23;6.68;;;3.72;;
75379;SDS011;64279;44.714;37.756;2022-11-25T05:44:26;7.35;;;4.10;;
75379;SDS011;64279;44.714;37.756;2022-11-25T05:45:29;6.18;;;3.80;;
75379;SDS011;64279;44.714;37.756;2022-11-25T05:46:32;5.35;;;4.03;;
75379;SDS011;64279;44.714;37.756;2022-11-25T05:47:35;8.05;;;3.95;;
75379;SDS011;64279;44.714;37.756;2022-11-25T05:48:38;6.43;;;4.10;;
75379;SDS011;64279;44.714;37.756;2022-11-25T05:49:41;6.45;;;3.58;;
75379;SDS011;64279;44.714;37.756;2022-11-25T05:50:44;7.60;;;3.83;;
75379;SDS011;64279;44.714;37.756;2022-11-25T05:51:56;6.65;;;4.10;;
75379;SDS011;64279;44.714;37.756;2022-11-25T05:53:01;6.03;;;4.07;;
75379;SDS011;64279;44.714;37.756;2022-11-25T05:54:04;8.90;;;4.30;;
75379;SDS011;64279;44.714;37.756;2022-11-25T05:55:08;9.13;;;4.95;;
75379;SDS011;64279;44.714;37.756;2022-11-25T05:56:11;8.25;;;3.70;;
75379;SDS011;64279;44.714;37.756;2022-11-25T05:57:32;6.28;;;3.80;;
75379;SDS011;64279;44.714;37.756;2022-11-25T05:58:41;8.35;;;3.88;;
75379;SDS011;64279;44.714;37.756;2022-11-25T05:59:44;5.57;;;3.65;;
75379;SDS011;64279;44.714;37.756;2022-11-25T06:01:08;6.28;;;4.07;;
75379;SDS011;64279;44.714;37.756;2022-11-25T06:02:11;6.13;;;3.60;;
75379;SDS011;64279;44.714;37.756;2022-11-25T06:03:14;6.95;;;3.85;;
75379;SDS011;64279;44.714;37.756;2022-11-25T06:04:18;6.95;;;4.05;;
75379;SDS011;64279;44.714;37.756;2022-11-25T06:05:20;6.95;;;3.63;;
75379;SDS011;64279;44.714;37.756;2022-11-25T06:06:24;7.32;;;4.07;;
75379;SDS011;64279;44.714;37.756;2022-11-25T06:07:27;6.22;;;3.95;;
75379;SDS011;64279;44.714;37.756;2022-11-25T06:08:30;5.63;;;4.07;;
75379;SDS011;64279;44.714;37.756;2022-11-25T06:09:33;6.07;;;4.07;;
75379;SDS011;64279;44.714;37.756;2022-11-25T06:10:39;6.00;;;4.15;;
75379;SDS011;64279;44.714;37.756;2022-11-25T06:11:42;7.10;;;4.43;;
75379;SDS011;64279;44.714;37.756;2022-11-25T06:12:45;6.75;;;3.92;;
75379;SDS011;64279;44.714;37.756;2022-11-25T06:13:48;7.57;;;4.22;;
75379;SDS011;64279;44.714;37.756;2022-11-25T06:14:51;8.48;;;4.40;;
75379;SDS011;64279;44.714;37.756;2022-11-25T06:15:53;5.35;;;3.72;;
75379;SDS011;64279;44.714;37.756;2022-11-25T06:16:58;6.63;;;4.82;;
75379;SDS011;64279;44.714;37.756;2022-11-25T06:18:06;5.93;;;3.75;;
75379;SDS011;64279;44.714;37.756;2022-11-25T06:19:09;7.90;;;4.97;;
75379;SDS011;64279;44.714;37.756;2022-11-25T06:20:12;8.20;;;4.45;;
75379;SDS011;64279;44.714;37.756;2022-11-25T06:21:15;6.30;;;3.75;;
75379;SDS011;64279;44.714;37.756;2022-11-25T06:22:18;5.55;;;4.20;;
75379;SDS011;64279;44.714;37.756;2022-11-25T06:23:21;8.35;;;4.82;;
75379;SDS011;64279;44.714;37.756;2022-11-25T06:24:24;7.05;;;4.68;;
75379;SDS011;64279;44.714;37.756;2022-11-25T06:25:32;5.72;;;3.88;;
75379;SDS011;64279;44.714;37.756;2022-11-25T06:26:35;7.35;;;4.18;;
75379;SDS011;64279;44.714;37.756;2022-11-25T06:27:39;6.97;;;4.38;;
75379;SDS011;64279;44.714;37.756;2022-11-25T06:29:01;5.18;;;4.10;;
75379;SDS011;64279;44.714;37.756;2022-11-25T06:30:04;5.78;;;4.00;;
75379;SDS011;64279;44.714;37.756;2022-11-25T06:31:12;7.78;;;4.47;;
75379;SDS011;64279;44.714;37.756;2022-11-25T06:32:30;8.05;;;4.25;;